Time;durP1;ratioP1;P1;durP2;ratioP2;P2;SDS_P1;SDS_P2;PMS_P1;PMS_P2;Temp;Humidity;BMP_temperature;BMP_pressure;BME280_temperature;BME280_humidity;BME280_pressure;Samples;Min_cycle;Max_cycle;Signal;HPM_P1;HPM_P2
2022/09/08 00:01:26;;;;;;;11.48;6.65;;;18.00;96.90;;;;;;4131915;28;20495;-86
2022/09/08 00:03:29;;;;;;;8.98;5.97;;;18.00;96.90;;;;;;4131740;28;20054;-86
2022/09/08 00:05:34;;;;;;;9.50;6.28;;;18.00;97.00;;;;;;4149951;28;20115;-86
2022/09/08 00:07:35;;;;;;;10.07;6.18;;;18.00;97.00;;;;;;4149687;28;20137;-86
2022/09/08 00:09:36;;;;;;;9.77;6.47;;;17.90;97.10;;;;;;4149348;28;20077;-87
2022/09/08 00:11:39;;;;;;;9.00;6.53;;;18.00;97.10;;;;;;4149432;28;20038;-87
2022/09/08 00:13:42;;;;;;;9.98;7.47;;;18.00;97.20;;;;;;4149867;28;20074;-86
2022/09/08 00:15:43;;;;;;;9.70;7.25;;;17.90;97.30;;;;;;4131864;28;20085;-86
2022/09/08 00:17:43;;;;;;;11.48;7.82;;;17.90;97.40;;;;;;4149133;28;20038;-86
2022/09/08 00:19:44;;;;;;;14.02;8.55;;;17.90;97.40;;;;;;4132064;28;20097;-86
2022/09/08 00:21:45;;;;;;;12.63;8.00;;;17.90;97.40;;;;;;4149533;28;20455;-86
2022/09/08 00:23:46;;;;;;;9.25;7.22;;;17.80;97.50;;;;;;4149586;28;20046;-86
2022/09/08 00:25:47;;;;;;;12.05;8.13;;;17.80;97.60;;;;;;4148330;28;20049;-86
2022/09/08 00:27:48;;;;;;;12.73;8.63;;;17.80;97.70;;;;;;4131205;28;20046;-86
2022/09/08 00:29:49;;;;;;;14.43;7.78;;;17.80;97.60;;;;;;4133079;28;20129;-86
2022/09/08 00:31:50;;;;;;;11.40;7.50;;;17.70;97.70;;;;;;4135338;28;20123;-86
2022/09/08 00:33:51;;;;;;;15.82;9.65;;;17.70;97.70;;;;;;4152635;28;20045;-85
2022/09/08 00:35:53;;;;;;;13.27;9.35;;;17.70;97.80;;;;;;4135001;28;20129;-85
2022/09/08 00:37:54;;;;;;;13.18;10.15;;;17.70;97.90;;;;;;4135023;28;20050;-85
2022/09/08 00:39:55;;;;;;;15.48;9.55;;;17.70;97.90;;;;;;4151926;28;20053;-84
2022/09/08 00:41:56;;;;;;;15.43;10.02;;;17.70;98.00;;;;;;4152105;28;20045;-85
2022/09/08 00:44:02;;;;;;;16.33;9.98;;;17.70;98.00;;;;;;4151249;28;20054;-85
2022/09/08 00:46:09;;;;;;;17.10;10.75;;;17.70;98.20;;;;;;4151263;28;20412;-85
2022/09/08 00:48:17;;;;;;;15.25;10.00;;;17.70;98.20;;;;;;4150904;28;20345;-86
2022/09/08 00:50:24;;;;;;;16.50;10.80;;;17.70;98.40;;;;;;4118749;28;20058;-85
2022/09/08 00:52:32;;;;;;;20.23;11.15;;;17.70;98.40;;;;;;4149866;28;20041;-85
2022/09/08 00:54:35;;;;;;;14.73;9.85;;;17.60;98.40;;;;;;4132703;28;20555;-85
2022/09/08 00:56:37;;;;;;;18.23;10.88;;;17.60;98.40;;;;;;4132037;28;20483;-85
2022/09/08 00:58:38;;;;;;;17.35;10.88;;;17.60;98.50;;;;;;4133212;28;20054;-85
2022/09/08 01:00:41;;;;;;;16.80;10.88;;;17.60;98.60;;;;;;4132758;28;20070;-85
2022/09/08 01:02:45;;;;;;;16.88;11.02;;;17.60;98.70;;;;;;4150262;28;20045;-85
2022/09/08 01:04:47;;;;;;;24.38;12.45;;;17.50;98.70;;;;;;4132609;28;20472;-86
2022/09/08 01:14:53;;;;;;;22.98;12.82;;;17.40;98.90;;;;;;4143477;28;20471;-87
2022/09/08 01:16:53;;;;;;;17.48;11.88;;;17.40;99.30;;;;;;4165902;28;20088;-86
2022/09/08 01:18:57;;;;;;;17.73;12.32;;;17.40;99.00;;;;;;4168052;28;20045;-86
2022/09/08 01:21:06;;;;;;;18.85;12.07;;;17.40;99.10;;;;;;4150760;28;20442;-87
2022/09/08 01:23:34;;;;;;;17.55;13.20;;;17.30;99.20;;;;;;4167880;28;20049;-87
2022/09/08 01:25:56;;;;;;;16.75;11.77;;;17.30;99.40;;;;;;4146602;28;20093;-86
2022/09/08 01:28:10;;;;;;;20.00;12.95;;;17.20;99.50;;;;;;4134293;28;20054;-86
2022/09/08 01:30:12;;;;;;;19.25;13.05;;;17.20;99.40;;;;;;4134792;28;20050;-87
2022/09/08 01:32:14;;;;;;;20.80;13.63;;;17.20;99.40;;;;;;4134369;28;20055;-86
2022/09/08 01:34:15;;;;;;;17.33;12.90;;;17.20;99.40;;;;;;4134473;28;20042;-85
2022/09/08 01:36:18;;;;;;;18.45;13.05;;;17.20;99.50;;;;;;4151179;28;20133;-86
2022/09/08 01:38:19;;;;;;;18.80;13.32;;;17.20;99.60;;;;;;4134392;28;20058;-85
2022/09/08 01:40:19;;;;;;;20.25;14.00;;;17.20;99.60;;;;;;4134345;28;20057;-85
2022/09/08 01:42:20;;;;;;;19.58;12.52;;;17.20;99.60;;;;;;4133570;28;20109;-85
2022/09/08 01:44:21;;;;;;;20.25;13.45;;;17.10;99.70;;;;;;4133875;28;20125;-85
2022/09/08 01:46:22;;;;;;;19.98;14.55;;;17.20;99.80;;;;;;4154612;28;20069;-85
2022/09/08 01:48:23;;;;;;;20.08;14.25;;;17.20;99.90;;;;;;4141526;28;20046;-86
2022/09/08 01:50:25;;;;;;;19.40;13.77;;;17.20;99.90;;;;;;4143468;28;20062;-85
2022/09/08 01:52:26;;;;;;;20.77;13.98;;;17.20;99.90;;;;;;4142091;28;20050;-86
2022/09/08 01:54:27;;;;;;;24.02;14.45;;;17.20;99.90;;;;;;4142766;28;20089;-86
2022/09/08 01:56:27;;;;;;;20.95;14.63;;;17.20;99.90;;;;;;4127790;28;20113;-86
2022/09/08 01:58:28;;;;;;;26.02;15.90;;;17.20;99.90;;;;;;4127694;28;20074;-86
2022/09/08 02:00:28;;;;;;;22.45;16.02;;;17.10;99.90;;;;;;4142240;28;20046;-86
2022/09/08 02:02:29;;;;;;;22.63;15.50;;;17.10;99.90;;;;;;4141124;28;20050;-86
2022/09/08 02:04:30;;;;;;;23.60;15.70;;;17.10;99.90;;;;;;4143465;28;20108;-86
2022/09/08 02:06:31;;;;;;;24.13;16.23;;;17.10;99.90;;;;;;4144026;28;20088;-86
2022/09/08 02:08:31;;;;;;;28.73;14.82;;;17.10;99.90;;;;;;4127025;28;20042;-87
2022/09/08 02:10:32;;;;;;;21.88;15.50;;;17.10;99.90;;;;;;4143308;28;20118;-85
2022/09/08 02:12:34;;;;;;;24.52;16.15;;;17.10;99.90;;;;;;4126721;28;20050;-86
2022/09/08 02:14:35;;;;;;;27.75;16.25;;;17.20;99.90;;;;;;4125057;28;20059;-85
2022/09/08 02:16:36;;;;;;;23.80;16.85;;;17.20;99.90;;;;;;4119251;28;20054;-85
2022/09/08 02:18:38;;;;;;;23.13;16.13;;;17.20;99.90;;;;;;4134412;28;20046;-85
2022/09/08 02:20:40;;;;;;;25.50;17.48;;;17.20;99.90;;;;;;4117579;28;20378;-85
2022/09/08 02:22:42;;;;;;;23.60;16.02;;;17.20;99.90;;;;;;4117581;28;20203;-85
2022/09/08 02:24:43;;;;;;;30.13;18.08;;;17.20;99.90;;;;;;4133495;28;20100;-85
2022/09/08 02:26:44;;;;;;;24.65;16.88;;;17.20;99.90;;;;;;4117894;28;20055;-85
2022/09/08 02:28:45;;;;;;;25.42;16.30;;;17.20;99.90;;;;;;4116931;28;20055;-86
2022/09/08 02:30:46;;;;;;;27.63;16.77;;;17.20;99.90;;;;;;4133634;28;20050;-86
2022/09/08 02:32:48;;;;;;;26.25;18.00;;;17.20;99.90;;;;;;4116811;28;20086;-86
2022/09/08 02:34:49;;;;;;;29.02;17.52;;;17.20;99.90;;;;;;4134926;28;20126;-85
2022/09/08 02:36:50;;;;;;;27.40;17.60;;;17.20;99.90;;;;;;4116246;28;20058;-85
2022/09/08 02:38:52;;;;;;;26.33;17.95;;;17.20;99.90;;;;;;4134460;28;20097;-85
2022/09/08 02:40:53;;;;;;;28.75;18.10;;;17.20;99.90;;;;;;4134376;28;20061;-86
2022/09/08 02:42:54;;;;;;;27.25;17.25;;;17.20;99.90;;;;;;4100526;29;20516;-85
2022/09/08 02:44:55;;;;;;;27.98;18.02;;;17.20;99.90;;;;;;4134064;28;20046;-84
2022/09/08 02:46:56;;;;;;;26.05;16.98;;;17.30;99.90;;;;;;4134295;28;20046;-84
2022/09/08 02:48:56;;;;;;;24.80;16.25;;;17.30;99.90;;;;;;4133841;28;20112;-85
2022/09/08 02:51:01;;;;;;;26.88;17.45;;;17.30;99.90;;;;;;4131664;28;20057;-84
2022/09/08 02:53:03;;;;;;;27.45;17.10;;;17.30;99.90;;;;;;4131602;28;20433;-83
2022/09/08 02:55:04;;;;;;;32.00;18.33;;;17.30;99.90;;;;;;4131667;28;20070;-84
2022/09/08 02:57:05;;;;;;;29.58;18.88;;;17.30;99.90;;;;;;4132618;28;20054;-87
2022/09/08 02:59:05;;;;;;;28.20;17.50;;;17.30;99.90;;;;;;4116070;28;20050;-85
2022/09/08 03:01:06;;;;;;;25.98;16.95;;;17.30;99.90;;;;;;4099932;29;20599;-84
2022/09/08 03:03:07;;;;;;;25.85;17.70;;;17.30;99.90;;;;;;4128225;28;20070;-83
2022/09/08 03:05:08;;;;;;;28.55;17.70;;;17.30;99.90;;;;;;4133536;28;20559;-84
2022/09/08 03:07:11;;;;;;;29.63;17.42;;;17.30;99.90;;;;;;4143917;28;20038;-84
2022/09/08 03:09:12;;;;;;;27.10;17.52;;;17.30;99.90;;;;;;4149154;28;20042;-84
2022/09/08 03:11:13;;;;;;;29.42;18.75;;;17.30;99.90;;;;;;4131522;28;20455;-84
2022/09/08 03:13:15;;;;;;;33.22;19.52;;;17.40;99.90;;;;;;4149272;28;20061;-84
2022/09/08 03:15:16;;;;;;;29.55;20.23;;;17.30;99.90;;;;;;4149637;28;20038;-84
2022/09/08 03:17:16;;;;;;;28.35;18.63;;;17.40;99.90;;;;;;4149277;28;20398;-83
2022/09/08 03:19:17;;;;;;;32.22;19.38;;;17.40;99.90;;;;;;4116206;28;20489;-84
2022/09/08 03:21:18;;;;;;;31.40;19.30;;;17.40;99.90;;;;;;4130650;28;20151;-84
2022/09/08 03:23:20;;;;;;;34.30;20.55;;;17.40;99.90;;;;;;4130670;28;20089;-84
2022/09/08 03:25:20;;;;;;;31.85;20.77;;;17.40;99.90;;;;;;4131050;28;20157;-84
2022/09/08 03:27:22;;;;;;;33.38;20.20;;;17.40;99.90;;;;;;4130847;28;20057;-84
2022/09/08 03:29:23;;;;;;;32.17;20.98;;;17.40;99.90;;;;;;4147324;28;20830;-84
2022/09/08 03:31:24;;;;;;;32.78;20.67;;;17.40;99.90;;;;;;4146908;28;20050;-84
2022/09/08 03:33:24;;;;;;;36.13;22.25;;;17.40;99.90;;;;;;4129225;28;20415;-84
2022/09/08 03:35:25;;;;;;;38.83;22.05;;;17.40;99.90;;;;;;4113767;28;20054;-84
2022/09/08 03:37:27;;;;;;;38.22;22.73;;;17.40;99.90;;;;;;4114720;28;20058;-84
2022/09/08 03:39:28;;;;;;;33.53;21.50;;;17.40;99.90;;;;;;4162236;28;20041;-84
2022/09/08 03:41:28;;;;;;;34.03;20.42;;;17.40;99.90;;;;;;4164952;28;20049;-84
2022/09/08 03:43:29;;;;;;;36.33;23.10;;;17.40;99.90;;;;;;4150008;28;20038;-84
2022/09/08 03:45:31;;;;;;;35.53;21.48;;;17.40;99.90;;;;;;4131771;28;20500;-84
2022/09/08 03:47:32;;;;;;;34.03;22.10;;;17.50;99.90;;;;;;4148278;28;20126;-84
2022/09/08 03:49:32;;;;;;;37.63;22.67;;;17.50;99.90;;;;;;4148577;28;20042;-84
2022/09/08 03:51:33;;;;;;;36.85;22.52;;;17.50;99.90;;;;;;4147161;28;20407;-84
2022/09/08 03:53:34;;;;;;;37.75;23.13;;;17.50;99.90;;;;;;4148787;28;20407;-84
2022/09/08 03:55:41;;;;;;;35.45;22.23;;;17.50;99.90;;;;;;4148862;28;20048;-84
2022/09/08 03:57:43;;;;;;;34.97;22.10;;;17.50;99.90;;;;;;4147910;28;20462;-84
2022/09/08 03:59:44;;;;;;;34.17;22.15;;;17.50;99.90;;;;;;4147001;28;20084;-85
2022/09/08 04:01:44;;;;;;;37.72;23.05;;;17.50;99.90;;;;;;4149011;28;20054;-85
2022/09/08 04:03:45;;;;;;;39.40;23.75;;;17.50;99.90;;;;;;4147091;28;20462;-85
2022/09/08 04:05:46;;;;;;;39.08;22.23;;;17.50;99.90;;;;;;4148586;28;20073;-85
2022/09/08 04:07:47;;;;;;;40.78;24.25;;;17.50;99.90;;;;;;4147294;28;20045;-85
2022/09/08 04:09:47;;;;;;;36.95;22.73;;;17.50;99.90;;;;;;4130664;28;20050;-84
2022/09/08 04:11:49;;;;;;;35.65;22.08;;;17.50;99.90;;;;;;4148431;28;20034;-84
2022/09/08 04:13:52;;;;;;;35.08;22.35;;;17.50;99.90;;;;;;4148243;28;20104;-84
2022/09/08 04:15:53;;;;;;;43.30;23.70;;;17.50;99.90;;;;;;4147293;28;20146;-84
2022/09/08 04:17:54;;;;;;;36.22;22.98;;;17.50;99.90;;;;;;4130887;28;20057;-84
2022/09/08 04:19:54;;;;;;;38.63;24.17;;;17.50;99.90;;;;;;4147323;28;20054;-85
2022/09/08 04:21:55;;;;;;;38.15;23.08;;;17.50;99.90;;;;;;4130869;28;20048;-86
2022/09/08 04:23:56;;;;;;;35.55;23.10;;;17.50;99.90;;;;;;4147973;28;20049;-85
2022/09/08 04:26:02;;;;;;;39.95;24.00;;;17.50;99.90;;;;;;4148773;28;20534;-85
2022/09/08 04:28:03;;;;;;;34.17;22.73;;;17.50;99.90;;;;;;4114670;28;20627;-85
2022/09/08 04:30:04;;;;;;;38.03;23.92;;;17.60;99.90;;;;;;4148054;28;20050;-84
2022/09/08 04:32:07;;;;;;;36.08;22.60;;;17.60;99.90;;;;;;4148243;28;20052;-84
2022/09/08 04:34:08;;;;;;;40.47;24.65;;;17.60;99.90;;;;;;4148576;28;20116;-84
2022/09/08 04:36:12;;;;;;;37.85;23.42;;;17.60;99.90;;;;;;4148791;28;20053;-84
2022/09/08 04:38:12;;;;;;;35.17;22.45;;;17.60;99.90;;;;;;4148028;28;20049;-85
2022/09/08 04:40:13;;;;;;;37.97;23.80;;;17.60;99.90;;;;;;4131098;28;20065;-85
2022/09/08 04:42:14;;;;;;;39.30;24.65;;;17.60;99.90;;;;;;4147451;28;20038;-85
2022/09/08 04:44:15;;;;;;;37.38;23.63;;;17.60;99.90;;;;;;4131126;28;20069;-84
2022/09/08 04:46:17;;;;;;;38.45;23.58;;;17.60;99.90;;;;;;4148620;28;20057;-84
2022/09/08 04:48:18;;;;;;;39.22;24.27;;;17.60;99.90;;;;;;4130708;28;20038;-84
2022/09/08 04:50:20;;;;;;;38.55;24.67;;;17.60;99.90;;;;;;4148647;28;20050;-84
2022/09/08 04:52:24;;;;;;;36.80;23.52;;;17.60;99.90;;;;;;4147858;28;20100;-84
2022/09/08 04:54:25;;;;;;;39.35;24.02;;;17.60;99.90;;;;;;4148823;28;20046;-84
2022/09/08 04:56:27;;;;;;;41.33;24.35;;;17.60;99.90;;;;;;4148054;28;20575;-84
2022/09/08 04:58:33;;;;;;;38.47;24.08;;;17.60;99.90;;;;;;4147608;28;20488;-84
2022/09/08 05:00:33;;;;;;;46.00;25.23;;;17.60;99.90;;;;;;4146879;28;20046;-84
2022/09/08 05:02:34;;;;;;;38.05;24.85;;;17.60;99.90;;;;;;4147054;28;20053;-84
2022/09/08 05:04:37;;;;;;;39.55;24.30;;;17.50;99.90;;;;;;4146618;28;20038;-85
2022/09/08 05:06:38;;;;;;;38.70;25.23;;;17.50;99.90;;;;;;4145864;28;20092;-84
2022/09/08 05:08:40;;;;;;;38.53;23.95;;;17.50;99.90;;;;;;4128923;28;20042;-84
2022/09/08 05:10:41;;;;;;;42.85;25.50;;;17.60;99.90;;;;;;4146422;28;20060;-84
2022/09/08 05:12:41;;;;;;;41.75;25.95;;;17.50;99.90;;;;;;4147110;28;20073;-84
2022/09/08 05:14:42;;;;;;;40.80;24.98;;;17.50;99.90;;;;;;4146447;28;20046;-83
2022/09/08 05:16:43;;;;;;;41.30;24.92;;;17.50;99.90;;;;;;4147873;28;20068;-83
2022/09/08 05:18:52;;;;;;;39.97;24.48;;;17.50;99.90;;;;;;4150611;28;20046;-83
2022/09/08 05:20:54;;;;;;;43.72;26.48;;;17.40;99.90;;;;;;4150421;28;20048;-89
2022/09/08 05:22:55;;;;;;;44.60;26.13;;;17.50;99.90;;;;;;4150984;28;20529;-87
2022/09/08 05:24:56;;;;;;;41.95;25.48;;;17.60;99.90;;;;;;4134606;28;20042;-86
2022/09/08 05:26:58;;;;;;;45.40;27.17;;;17.60;99.90;;;;;;4150409;28;20053;-85
2022/09/08 05:28:59;;;;;;;41.72;25.95;;;17.50;99.90;;;;;;4132411;28;20051;-85
2022/09/08 05:31:01;;;;;;;44.13;26.48;;;17.50;99.90;;;;;;4149468;28;20049;-84
2022/09/08 05:33:02;;;;;;;42.20;27.95;;;17.50;99.90;;;;;;4150740;28;20088;-85
2022/09/08 05:35:03;;;;;;;42.70;26.50;;;17.50;99.90;;;;;;4134154;28;20054;-85
2022/09/08 05:37:03;;;;;;;46.28;24.95;;;17.50;99.90;;;;;;4151852;28;20046;-86
2022/09/08 05:39:06;;;;;;;37.70;23.92;;;17.50;99.90;;;;;;4151732;28;20042;-84
2022/09/08 05:41:07;;;;;;;41.15;24.35;;;17.50;99.90;;;;;;4153576;28;20077;-84
2022/09/08 05:43:07;;;;;;;40.08;24.65;;;17.60;99.90;;;;;;4135810;28;20109;-84
2022/09/08 05:45:09;;;;;;;42.35;24.88;;;17.60;99.90;;;;;;4165464;28;20496;-86
2022/09/08 05:47:09;;;;;;;39.75;25.00;;;17.60;99.90;;;;;;4139391;28;20054;-85
2022/09/08 05:49:10;;;;;;;40.97;24.80;;;17.60;99.90;;;;;;4150728;28;20125;-84
2022/09/08 05:51:13;;;;;;;37.55;23.33;;;17.70;99.90;;;;;;4153790;28;20129;-84
2022/09/08 05:53:14;;;;;;;38.47;25.15;;;17.70;99.90;;;;;;4151544;28;20057;-85
2022/09/08 05:55:15;;;;;;;38.65;23.92;;;17.70;99.90;;;;;;4133953;28;20046;-85
2022/09/08 05:57:16;;;;;;;39.33;24.58;;;17.70;99.90;;;;;;4151141;28;20148;-85
2022/09/08 05:59:17;;;;;;;37.63;23.92;;;17.80;99.90;;;;;;4151076;28;20222;-84
2022/09/08 06:01:18;;;;;;;37.20;23.88;;;17.80;99.90;;;;;;4151635;28;20384;-85
2022/09/08 06:03:18;;;;;;;36.28;23.92;;;17.80;99.90;;;;;;4163541;28;20041;-85
2022/09/08 06:05:20;;;;;;;37.28;25.85;;;17.80;99.90;;;;;;4167037;28;20041;-85
2022/09/08 06:07:21;;;;;;;39.03;23.45;;;17.90;99.90;;;;;;4148542;28;20058;-85
2022/09/08 06:09:22;;;;;;;39.35;26.17;;;17.90;99.90;;;;;;4148830;28;20054;-85
2022/09/08 06:11:23;;;;;;;37.47;24.30;;;17.90;99.90;;;;;;4148898;28;20407;-85
2022/09/08 06:13:24;;;;;;;42.90;25.02;;;17.90;99.90;;;;;;4167182;28;20130;-85
2022/09/08 06:15:24;;;;;;;37.50;24.23;;;17.90;99.90;;;;;;4162366;28;20037;-85
2022/09/08 06:17:25;;;;;;;35.83;23.92;;;17.90;99.90;;;;;;4163447;28;20553;-86
2022/09/08 06:19:26;;;;;;;41.33;23.42;;;17.90;99.90;;;;;;4156919;28;20471;-85
2022/09/08 06:21:29;;;;;;;39.15;24.48;;;17.90;99.90;;;;;;4157025;28;20049;-85
2022/09/08 06:23:30;;;;;;;42.40;24.13;;;17.90;99.90;;;;;;4166723;28;20513;-85
2022/09/08 06:25:30;;;;;;;35.85;22.33;;;17.90;99.90;;;;;;4159886;28;20050;-85
2022/09/08 06:28:01;;;;;;;39.13;24.58;;;17.90;99.90;;;;;;4131628;28;20042;-85
2022/09/08 06:30:11;;;;;;;39.70;25.17;;;17.90;99.90;;;;;;4150220;28;20432;-86
2022/09/08 06:32:34;;;;;;;41.25;24.02;;;17.90;99.90;;;;;;4133179;28;20535;-85
2022/09/08 06:34:41;;;;;;;41.70;25.80;;;17.90;99.90;;;;;;4150522;28;20045;-85
2022/09/08 06:36:48;;;;;;;41.35;25.85;;;17.90;99.90;;;;;;4150382;28;20124;-86
2022/09/08 06:38:56;;;;;;;44.65;26.50;;;17.90;99.90;;;;;;4150358;28;20475;-85
2022/09/08 06:41:12;;;;;;;39.05;24.45;;;17.90;99.90;;;;;;4150578;28;20153;-85
2022/09/08 06:43:15;;;;;;;46.33;26.48;;;17.90;99.90;;;;;;4149949;28;20069;-85
2022/09/08 06:45:23;;;;;;;41.10;26.23;;;17.90;99.90;;;;;;4149824;28;20139;-85
2022/09/08 06:47:33;;;;;;;41.22;26.13;;;17.80;99.90;;;;;;4132664;28;20519;-85
2022/09/08 06:49:33;;;;;;;43.60;27.35;;;17.80;99.90;;;;;;4149631;28;20046;-85
2022/09/08 06:52:00;;;;;;;41.53;25.35;;;17.80;99.90;;;;;;4132985;28;20546;-85
2022/09/08 06:54:10;;;;;;;40.22;24.23;;;17.80;99.90;;;;;;4150015;28;20129;-85
2022/09/08 06:56:38;;;;;;;41.00;24.73;;;17.80;99.90;;;;;;4149457;28;20038;-85
2022/09/08 06:58:41;;;;;;;46.10;25.80;;;17.80;99.90;;;;;;4148880;28;20052;-86
2022/09/08 07:00:51;;;;;;;42.33;24.70;;;17.80;99.90;;;;;;4153696;28;20056;-85
2022/09/08 07:02:55;;;;;;;43.42;26.98;;;17.80;99.90;;;;;;4156831;28;20046;-85
2022/09/08 07:05:34;;;;;;;48.38;26.55;;;17.80;99.90;;;;;;4148625;28;20057;-85
2022/09/08 07:07:58;;;;;;;42.15;25.92;;;17.80;99.90;;;;;;4149857;28;20056;-85
2022/09/08 07:10:11;;;;;;;44.92;27.30;;;17.70;99.90;;;;;;4150002;28;20054;-85
2022/09/08 07:12:37;;;;;;;42.53;25.80;;;17.70;99.90;;;;;;4149209;28;20088;-85
2022/09/08 07:15:16;;;;;;;40.63;26.42;;;17.70;99.90;;;;;;4149229;28;20054;-85
2022/09/08 07:17:56;;;;;;;43.22;26.33;;;17.70;99.90;;;;;;4148910;28;20052;-84
2022/09/08 07:19:57;;;;;;;42.95;26.27;;;17.70;99.90;;;;;;4163077;28;20065;-83
2022/09/08 07:22:22;;;;;;;47.25;26.52;;;17.70;99.90;;;;;;4166378;28;20121;-83
2022/09/08 07:24:29;;;;;;;43.03;26.25;;;17.70;99.90;;;;;;4148765;28;20076;-84
2022/09/08 07:26:41;;;;;;;40.90;25.30;;;17.70;99.90;;;;;;4161834;28;20066;-84
2022/09/08 07:28:49;;;;;;;47.58;25.50;;;17.70;99.90;;;;;;4155943;28;20041;-84
2022/09/08 07:30:56;;;;;;;43.17;25.33;;;17.70;99.90;;;;;;4136124;28;20050;-84
2022/09/08 07:33:20;;;;;;;47.72;26.17;;;17.60;99.90;;;;;;4131420;28;20160;-83
2022/09/08 07:35:51;;;;;;;40.95;25.52;;;17.60;99.90;;;;;;4165725;28;20049;-84
2022/09/08 07:37:56;;;;;;;43.05;26.23;;;17.60;99.90;;;;;;4166116;28;20049;-84
2022/09/08 07:40:00;;;;;;;49.78;27.20;;;17.50;99.90;;;;;;4163462;28;20042;-84
2022/09/08 07:42:03;;;;;;;45.97;26.23;;;17.50;99.90;;;;;;4160849;28;20044;-84
2022/09/08 07:44:18;;;;;;;43.95;27.55;;;17.50;99.90;;;;;;4147236;28;20416;-83
2022/09/08 07:46:33;;;;;;;42.75;26.40;;;17.50;99.90;;;;;;4149187;28;20096;-84
2022/09/08 07:48:48;;;;;;;45.45;26.92;;;17.40;99.90;;;;;;4149246;28;20045;-84
2022/09/08 07:51:03;;;;;;;43.97;27.13;;;17.40;99.90;;;;;;4149608;28;20050;-83
2022/09/08 07:53:28;;;;;;;51.10;26.98;;;17.40;99.90;;;;;;4149674;28;20046;-83
2022/09/08 07:55:40;;;;;;;36.65;22.75;;;17.40;99.90;;;;;;4131553;28;20054;-85
2022/09/08 07:57:53;;;;;;;43.80;24.73;;;17.40;99.90;;;;;;4148239;28;20042;-86
2022/09/08 08:00:00;;;;;;;43.45;26.20;;;17.30;99.90;;;;;;4147501;28;20056;-85
2022/09/08 08:02:22;;;;;;;36.35;22.20;;;17.30;99.90;;;;;;4147334;28;20510;-85
2022/09/08 08:04:34;;;;;;;39.50;23.40;;;17.30;99.90;;;;;;4146465;28;20069;-85
2022/09/08 08:06:41;;;;;;;44.70;23.63;;;17.30;99.90;;;;;;4129824;28;20054;-85
2022/09/08 08:09:05;;;;;;;39.58;22.67;;;17.30;99.90;;;;;;4147499;28;20125;-85
2022/09/08 08:11:15;;;;;;;38.30;22.42;;;17.30;99.90;;;;;;4130208;28;20054;-84
2022/09/08 08:13:41;;;;;;;39.55;23.17;;;17.30;99.90;;;;;;4147357;28;20049;-85
2022/09/08 08:15:52;;;;;;;39.15;22.73;;;17.30;99.90;;;;;;4130381;28;20435;-85
2022/09/08 08:18:18;;;;;;;41.47;22.75;;;17.30;99.90;;;;;;4147781;28;20104;-84
2022/09/08 08:20:47;;;;;;;33.80;20.55;;;17.30;99.90;;;;;;4147645;28;20121;-85
2022/09/08 08:23:05;;;;;;;34.88;19.88;;;17.30;99.90;;;;;;4147247;28;20088;-84
2022/09/08 08:25:20;;;;;;;31.08;19.45;;;17.30;99.90;;;;;;4131626;28;20456;-84
2022/09/08 08:27:40;;;;;;;32.40;19.80;;;17.20;99.90;;;;;;4148475;28;20042;-85
2022/09/08 08:30:19;;;;;;;32.72;19.08;;;17.30;99.90;;;;;;4140583;28;20048;-85
2022/09/08 08:32:26;;;;;;;35.75;19.67;;;17.20;99.90;;;;;;4083205;29;20079;-85
2022/09/08 08:34:38;;;;;;;31.75;18.90;;;17.20;99.90;;;;;;4114044;28;20515;-85
2022/09/08 08:36:45;;;;;;;30.67;18.20;;;17.30;99.90;;;;;;4133307;28;20125;-85
2022/09/08 08:38:50;;;;;;;35.72;21.38;;;17.30;99.90;;;;;;4133328;28;20436;-84
2022/09/08 08:40:59;;;;;;;33.95;19.08;;;17.30;99.90;;;;;;4133304;28;20054;-85
2022/09/08 08:42:59;;;;;;;;;;;17.30;99.90;;;;;;4149824;28;20050;-85
2022/09/08 08:45:14;;;;;;;27.67;17.02;;;17.40;99.90;;;;;;4149329;28;20008;-85
2022/09/08 08:47:36;;;;;;;27.25;17.88;;;17.30;99.90;;;;;;4148296;28;20042;-85
2022/09/08 08:50:21;;;;;;;27.00;16.33;;;17.40;99.90;;;;;;4149957;28;20105;-85
2022/09/08 08:52:57;;;;;;;29.15;17.80;;;17.40;99.90;;;;;;4103184;29;20059;-85
2022/09/08 08:55:36;;;;;;;31.02;17.67;;;17.40;99.90;;;;;;4136439;28;20050;-85
2022/09/08 08:58:17;;;;;;;27.98;17.67;;;17.50;99.90;;;;;;4134377;28;20523;-84
2022/09/08 09:00:38;;;;;;;26.90;16.52;;;17.60;99.90;;;;;;4120191;28;20054;-85
2022/09/08 09:03:16;;;;;;;29.58;17.40;;;17.60;99.90;;;;;;4153306;28;20046;-85
2022/09/08 09:06:02;;;;;;;29.13;18.60;;;17.70;99.90;;;;;;4152520;28;20525;-85
2022/09/08 09:08:27;;;;;;;30.50;17.08;;;17.70;99.90;;;;;;4087666;28;20781;-85
2022/09/08 09:10:48;;;;;;;31.92;18.92;;;17.70;99.90;;;;;;4151206;28;20048;-84
2022/09/08 09:12:58;;;;;;;29.10;17.17;;;17.80;99.90;;;;;;4150812;28;20045;-84
2022/09/08 09:15:16;;;;;;;28.33;17.10;;;17.80;99.90;;;;;;4133328;28;20050;-85
2022/09/08 09:17:22;;;;;;;30.38;18.38;;;17.80;99.90;;;;;;4150362;28;20038;-85
2022/09/08 09:19:49;;;;;;;27.60;17.20;;;17.80;99.90;;;;;;4148939;28;20046;-85
2022/09/08 09:21:54;;;;;;;31.48;20.17;;;17.80;99.90;;;;;;4141005;28;20085;-85
2022/09/08 09:24:36;;;;;;;25.85;17.30;;;17.90;99.90;;;;;;4150986;28;20057;-85
2022/09/08 09:26:44;;;;;;;28.13;17.63;;;17.90;99.90;;;;;;4151513;28;20117;-85
2022/09/08 09:29:03;;;;;;;26.48;17.50;;;17.80;99.90;;;;;;4151547;28;20038;-85
2022/09/08 09:31:16;;;;;;;28.45;17.95;;;17.80;99.90;;;;;;4151546;28;20050;-85
2022/09/08 09:33:50;;;;;;;28.02;18.00;;;17.90;99.90;;;;;;4150363;28;20495;-84
2022/09/08 09:36:42;;;;;;;27.50;17.17;;;17.90;99.90;;;;;;4150427;28;20042;-85
2022/09/08 09:38:56;;;;;;;31.27;17.65;;;17.90;99.90;;;;;;4100699;29;20080;-85
2022/09/08 09:41:31;;;;;;;29.55;19.70;;;17.90;99.90;;;;;;4100235;29;20460;-85
2022/09/08 09:44:02;;;;;;;26.00;16.45;;;17.90;99.90;;;;;;4106078;28;20073;-85
2022/09/08 09:46:51;;;;;;;23.55;15.32;;;17.90;99.90;;;;;;4133052;28;20085;-85
2022/09/08 09:49:10;;;;;;;23.15;13.45;;;18.00;99.90;;;;;;4116868;28;20055;-85
2022/09/08 09:51:39;;;;;;;20.92;14.02;;;18.00;99.90;;;;;;4150421;28;20591;-85
2022/09/08 09:54:00;;;;;;;19.63;11.70;;;18.10;99.90;;;;;;4128669;28;20515;-85
2022/09/08 09:56:23;;;;;;;18.65;12.35;;;18.20;99.90;;;;;;4133534;28;20054;-85
2022/09/08 09:58:35;;;;;;;16.52;9.88;;;18.30;99.90;;;;;;4151085;28;20403;-85
2022/09/08 10:01:07;;;;;;;13.88;9.63;;;18.30;99.90;;;;;;4150063;28;20045;-84
2022/09/08 10:03:29;;;;;;;14.90;10.05;;;18.30;99.90;;;;;;4149253;28;20054;-84
2022/09/08 10:05:44;;;;;;;15.73;9.13;;;18.40;99.90;;;;;;4151220;28;20176;-85
2022/09/08 10:07:50;;;;;;;14.82;9.00;;;18.40;99.90;;;;;;4150988;28;20046;-85
2022/09/08 10:10:09;;;;;;;13.38;9.30;;;18.50;99.90;;;;;;4133263;28;20053;-84
2022/09/08 10:12:19;;;;;;;13.63;9.95;;;18.40;99.90;;;;;;4150604;28;20060;-84
2022/09/08 10:14:19;;;;;;;16.67;9.75;;;18.40;99.90;;;;;;4149988;28;20499;-84
2022/09/08 10:16:44;;;;;;;12.45;8.50;;;18.40;99.90;;;;;;4150522;28;20089;-85
2022/09/08 10:19:12;;;;;;;13.60;9.70;;;18.40;99.90;;;;;;4133246;28;20502;-84
2022/09/08 10:21:40;;;;;;;13.60;9.70;;;18.40;99.90;;;;;;4150157;28;20054;-85
2022/09/08 10:23:58;;;;;;;15.10;8.73;;;18.50;99.90;;;;;;4150060;28;20038;-84
2022/09/08 10:26:33;;;;;;;14.87;9.33;;;18.50;99.90;;;;;;4150162;28;20053;-85
2022/09/08 10:29:01;;;;;;;14.93;8.88;;;18.40;99.90;;;;;;4149881;28;20484;-83
2022/09/08 10:31:27;;;;;;;13.18;8.57;;;18.40;99.90;;;;;;4150225;28;20121;-84
2022/09/08 10:33:30;;;;;;;14.35;8.75;;;18.40;99.90;;;;;;4114587;28;20447;-84
2022/09/08 10:35:58;;;;;;;15.15;9.32;;;18.30;99.90;;;;;;4132783;28;20046;-85
2022/09/08 10:38:34;;;;;;;14.32;9.05;;;18.30;99.90;;;;;;4150426;28;20046;-85
2022/09/08 10:40:56;;;;;;;10.02;7.47;;;18.30;99.90;;;;;;4135668;28;20169;-85
2022/09/08 10:43:26;;;;;;;9.45;6.57;;;18.30;99.90;;;;;;4132461;28;20125;-85
2022/09/08 10:45:44;;;;;;;9.30;6.05;;;18.20;99.90;;;;;;4150017;28;20532;-85
2022/09/08 10:48:16;;;;;;;11.73;6.70;;;18.10;99.90;;;;;;4150733;28;20065;-84
2022/09/08 10:50:18;;;;;;;12.10;6.90;;;18.10;99.90;;;;;;4150399;28;20042;-85
2022/09/08 10:52:25;;;;;;;8.88;6.43;;;18.10;99.90;;;;;;4117444;28;20134;-85
2022/09/08 10:54:34;;;;;;;9.93;6.78;;;18.10;99.90;;;;;;4150064;28;20057;-85
2022/09/08 10:56:37;;;;;;;10.33;6.77;;;18.20;99.90;;;;;;4150168;28;20121;-85
2022/09/08 10:58:58;;;;;;;7.68;5.20;;;18.20;99.90;;;;;;4150757;28;20280;-85
2022/09/08 11:01:20;;;;;;;4.95;3.55;;;18.20;99.90;;;;;;4150760;28;20045;-85